createdAt,value
2018-09-24T00:01:40.774Z,6.20
2018-09-24T00:05:49.051Z,7.23
2018-09-24T00:09:57.431Z,7.25
2018-09-24T00:14:06.837Z,7.30
2018-09-24T00:18:15.125Z,8.33
2018-09-24T00:22:23.433Z,8.80
2018-09-24T00:26:31.710Z,8.33
2018-09-24T00:30:40.189Z,8.13
2018-09-24T00:34:48.533Z,10.40
2018-09-24T00:38:56.927Z,8.63
2018-09-24T00:43:05.390Z,9.80
2018-09-24T00:47:13.702Z,7.50
2018-09-24T00:51:22.161Z,7.83
2018-09-24T00:55:30.481Z,9.50
2018-09-24T00:59:38.760Z,8.43
2018-09-24T01:03:47.004Z,7.60
2018-09-24T01:07:55.549Z,8.23
2018-09-24T01:12:05.161Z,7.93
2018-09-24T01:16:13.449Z,8.30
2018-09-24T01:20:21.871Z,7.97
2018-09-24T01:24:29.961Z,8.17
2018-09-24T01:28:46.457Z,7.60
2018-09-24T01:32:54.971Z,6.80
2018-09-24T01:37:03.265Z,6.97
2018-09-24T01:41:11.640Z,6.43
2018-09-24T01:45:19.946Z,6.50
2018-09-24T01:49:28.339Z,6.40
2018-09-24T01:53:36.602Z,7.80
2018-09-24T01:57:44.895Z,5.93
2018-09-24T02:01:53.597Z,6.50
2018-09-24T02:06:02.305Z,5.50
2018-09-24T02:10:10.631Z,5.70
2018-09-24T02:14:18.890Z,6.60
2018-09-24T02:18:27.348Z,5.40
2018-09-24T02:22:35.665Z,6.50
2018-09-24T02:26:44.001Z,6.10
2018-09-24T02:30:52.388Z,5.27
2018-09-24T02:35:00.721Z,6.30
2018-09-24T02:39:10.072Z,4.93
2018-09-24T02:43:23.355Z,5.55
2018-09-24T02:47:35.703Z,5.17
2018-09-24T02:51:44.073Z,5.20
2018-09-24T02:55:52.697Z,5.60
2018-09-24T03:00:00.941Z,5.23
2018-09-24T03:04:09.705Z,4.77
2018-09-24T03:08:17.971Z,5.30
2018-09-24T03:12:26.422Z,4.22
2018-09-24T03:16:35.325Z,4.60
2018-09-24T03:20:44.901Z,4.73
2018-09-24T03:24:54.347Z,4.40
2018-09-24T03:29:02.664Z,4.70
2018-09-24T03:33:11.010Z,3.90
2018-09-24T03:37:19.285Z,4.10
2018-09-24T03:41:27.519Z,5.13
2018-09-24T03:45:35.798Z,4.70
2018-09-24T03:49:44.120Z,4.43
2018-09-24T03:53:52.665Z,3.83
2018-09-24T03:58:00.934Z,5.10
2018-09-24T04:02:09.298Z,4.40
2018-09-24T04:06:23.096Z,3.67
2018-09-24T04:10:36.838Z,3.73
2018-09-24T04:14:50.458Z,4.37
2018-09-24T04:19:04.214Z,3.90
2018-09-24T04:23:18.228Z,3.60
2018-09-24T04:27:32.146Z,4.80
2018-09-24T04:31:45.838Z,4.20
2018-09-24T04:35:59.577Z,5.70
2018-09-24T04:40:13.291Z,4.50
2018-09-24T04:44:27.108Z,4.50
2018-09-24T04:48:40.666Z,4.50
2018-09-24T04:52:54.323Z,4.20
2018-09-24T04:57:08.143Z,4.80
2018-09-24T05:01:21.827Z,4.03
2018-09-24T05:05:35.430Z,4.50
2018-09-24T05:09:49.078Z,4.73
2018-09-24T05:14:02.887Z,4.43
2018-09-24T05:18:16.545Z,4.60
2018-09-24T05:22:30.562Z,4.37
2018-09-24T05:26:44.194Z,4.40
2018-09-24T05:30:57.950Z,4.57
2018-09-24T05:35:11.736Z,5.30
2018-09-24T05:39:25.538Z,4.40
2018-09-24T05:43:39.144Z,4.70
2018-09-24T05:47:53.098Z,5.23
2018-09-24T05:52:06.888Z,5.97
2018-09-24T05:56:20.647Z,5.27
2018-09-24T06:00:34.333Z,5.80
2018-09-24T06:04:48.081Z,5.43
2018-09-24T06:09:01.900Z,4.80
2018-09-24T06:13:15.605Z,6.93
2018-09-24T06:17:29.193Z,4.27
2018-09-24T06:21:42.931Z,3.90
2018-09-24T06:25:56.690Z,4.10
2018-09-24T06:30:10.735Z,4.00
2018-09-24T06:34:24.375Z,4.10
2018-09-24T06:38:38.101Z,5.03
2018-09-24T06:42:51.748Z,4.80
2018-09-24T06:47:05.590Z,4.30
2018-09-24T06:51:19.209Z,4.70
2018-09-24T06:55:32.910Z,4.37
2018-09-24T06:59:46.615Z,4.10
2018-09-24T07:04:00.277Z,3.97
2018-09-24T07:08:14.141Z,4.00
2018-09-24T07:12:27.845Z,3.83
2018-09-24T07:16:41.514Z,4.00
2018-09-24T07:20:54.861Z,4.53
2018-09-24T07:25:08.741Z,4.40
2018-09-24T07:29:22.414Z,3.90
2018-09-24T07:33:36.071Z,4.60
2018-09-24T07:37:49.867Z,3.83
2018-09-24T07:42:03.774Z,3.93
2018-09-24T07:46:17.313Z,4.00
2018-09-24T07:50:31.547Z,5.03
2018-09-24T07:54:45.399Z,3.23
2018-09-24T07:58:59.053Z,3.83
2018-09-24T08:03:12.750Z,3.43
2018-09-24T08:07:26.495Z,3.73
2018-09-24T08:11:40.202Z,3.77
2018-09-24T08:15:53.884Z,3.97
2018-09-24T08:20:07.492Z,3.70
2018-09-24T08:24:21.192Z,3.33
2018-09-24T08:28:34.963Z,3.33
2018-09-24T08:32:48.717Z,3.30
2018-09-24T08:37:02.522Z,3.10
2018-09-24T08:41:16.374Z,3.23
2018-09-24T08:45:30.321Z,3.25
2018-09-24T08:49:44.084Z,3.50
2018-09-24T08:53:57.774Z,3.60
2018-09-24T08:58:11.376Z,3.43
2018-09-24T09:02:24.928Z,3.03
2018-09-24T09:06:38.719Z,2.90
2018-09-24T09:10:52.545Z,3.77
2018-09-24T09:15:06.334Z,3.10
2018-09-24T09:19:20.152Z,3.00
2018-09-24T09:23:33.892Z,3.07
2018-09-24T09:27:47.514Z,2.80
2018-09-24T09:32:01.375Z,4.17
2018-09-24T09:36:15.068Z,2.53
2018-09-24T09:40:28.786Z,2.27
2018-09-24T09:44:42.422Z,2.97
2018-09-24T09:48:56.133Z,3.33
2018-09-24T09:53:09.893Z,2.50
2018-09-24T09:57:23.641Z,2.97
2018-09-24T10:01:37.252Z,2.40
2018-09-24T10:05:51.026Z,2.30
2018-09-24T10:10:04.700Z,2.50
2018-09-24T10:14:18.869Z,2.30
2018-09-24T10:18:32.569Z,2.40
2018-09-24T10:22:46.217Z,2.53
2018-09-24T10:26:59.958Z,2.40
2018-09-24T10:31:13.737Z,2.47
2018-09-24T10:35:27.439Z,3.07
2018-09-24T10:39:41.334Z,2.67
2018-09-24T10:43:55.063Z,1.97
2018-09-24T10:48:08.740Z,2.00
2018-09-24T10:52:22.532Z,2.63
2018-09-24T10:56:36.318Z,2.90
2018-09-24T11:00:50.192Z,2.20
2018-09-24T11:05:04.011Z,2.60
2018-09-24T11:09:17.664Z,3.33
2018-09-24T11:13:31.563Z,2.30
2018-09-24T11:17:45.491Z,3.90
2018-09-24T11:21:59.244Z,1.90
2018-09-24T11:26:12.991Z,2.90
2018-09-24T11:30:26.770Z,2.50
2018-09-24T11:34:40.570Z,2.70
2018-09-24T11:38:54.203Z,2.50
2018-09-24T11:43:07.984Z,2.20
2018-09-24T11:47:21.511Z,1.97
2018-09-24T11:51:35.152Z,2.73
2018-09-24T11:55:48.782Z,2.67
2018-09-24T12:00:02.465Z,2.60
2018-09-24T12:04:16.282Z,2.30
2018-09-24T12:08:29.988Z,2.43
2018-09-24T12:12:43.693Z,3.03
2018-09-24T12:16:57.478Z,3.00
2018-09-24T12:21:11.367Z,3.20
2018-09-24T12:25:24.979Z,2.37
2018-09-24T12:29:38.580Z,2.60
2018-09-24T12:33:52.271Z,3.60
2018-09-24T12:38:06.082Z,2.60
2018-09-24T12:42:19.682Z,2.37
2018-09-24T12:46:33.448Z,2.80
2018-09-24T12:50:47.185Z,1.87
2018-09-24T12:55:00.846Z,2.80
2018-09-24T12:59:14.686Z,2.50
2018-09-24T13:03:28.446Z,2.37
2018-09-24T13:07:42.092Z,2.70
2018-09-24T13:11:55.830Z,2.83
2018-09-24T13:16:09.796Z,2.70
2018-09-24T13:20:23.457Z,2.20
2018-09-24T13:24:37.269Z,2.63
2018-09-24T13:28:51.097Z,3.33
2018-09-24T13:33:04.858Z,2.30
2018-09-24T13:37:18.636Z,2.47
2018-09-24T13:41:32.400Z,2.20
2018-09-24T13:45:46.153Z,2.70
2018-09-24T13:49:59.934Z,2.60
2018-09-24T13:54:13.640Z,2.47
2018-09-24T13:58:27.407Z,2.80
2018-09-24T14:02:41.223Z,1.90
2018-09-24T14:06:54.969Z,2.03
2018-09-24T14:11:08.553Z,3.27
2018-09-24T14:15:22.177Z,2.62
2018-09-24T14:19:35.956Z,3.00
2018-09-24T14:23:49.789Z,3.40
2018-09-24T14:28:03.426Z,2.53
2018-09-24T14:32:17.092Z,2.73
2018-09-24T14:36:30.710Z,2.50
2018-09-24T14:40:44.352Z,3.80
2018-09-24T14:44:58.039Z,2.07
2018-09-24T14:49:11.738Z,2.67
2018-09-24T14:53:25.335Z,3.30
2018-09-24T14:57:39.005Z,3.30
2018-09-24T15:01:52.958Z,3.20
2018-09-24T15:06:06.581Z,3.20
2018-09-24T15:10:20.233Z,2.53
2018-09-24T15:14:33.781Z,2.37
2018-09-24T15:18:47.377Z,2.50
2018-09-24T15:23:00.829Z,3.17
2018-09-24T15:27:14.450Z,3.00
2018-09-24T15:31:28.288Z,3.37
2018-09-24T15:35:42.161Z,3.53
2018-09-24T15:39:55.845Z,3.30
2018-09-24T15:44:09.709Z,2.80
2018-09-24T15:48:23.456Z,3.00
2018-09-24T15:52:37.176Z,2.90
2018-09-24T15:56:50.896Z,2.90
2018-09-24T16:01:04.501Z,3.30
2018-09-24T16:05:18.300Z,3.17
2018-09-24T16:09:32.070Z,3.30
2018-09-24T16:13:45.880Z,2.70
2018-09-24T16:17:59.645Z,3.00
2018-09-24T16:22:13.200Z,3.30
2018-09-24T16:26:26.966Z,2.63
2018-09-24T16:30:40.723Z,3.50
2018-09-24T16:34:54.556Z,2.90
2018-09-24T16:39:08.168Z,3.40
2018-09-24T16:43:21.878Z,3.20
2018-09-24T16:47:35.562Z,2.80
2018-09-24T16:51:49.300Z,2.50
2018-09-24T16:56:03.178Z,2.30
2018-09-24T17:00:16.952Z,2.53
2018-09-24T17:04:30.646Z,2.67
2018-09-24T17:08:44.264Z,2.70
2018-09-24T17:12:57.993Z,2.70
2018-09-24T17:17:11.861Z,2.50
2018-09-24T17:21:25.557Z,2.83
2018-09-24T17:25:39.337Z,2.43
2018-09-24T17:29:53.277Z,2.83
2018-09-24T17:34:07.058Z,2.97
2018-09-24T17:38:20.823Z,3.73
2018-09-24T17:42:34.460Z,2.50
2018-09-24T17:46:48.309Z,3.57
2018-09-24T17:51:02.079Z,3.43
2018-09-24T17:55:15.757Z,2.50
2018-09-24T17:59:29.455Z,3.00
2018-09-24T18:03:43.221Z,2.97
2018-09-24T18:07:56.848Z,3.43
2018-09-24T18:12:10.578Z,3.72
2018-09-24T18:16:24.325Z,2.90
2018-09-24T18:20:38.049Z,3.93
2018-09-24T18:24:52.578Z,3.43
2018-09-24T18:29:06.277Z,2.57
2018-09-24T18:33:21.176Z,3.47
2018-09-24T18:37:37.108Z,3.27
2018-09-24T18:41:50.795Z,2.80
2018-09-24T18:46:04.323Z,4.50
2018-09-24T18:50:18.196Z,4.03
2018-09-24T18:54:31.899Z,2.87
2018-09-24T18:58:45.658Z,3.55
2018-09-24T19:02:59.327Z,2.70
2018-09-24T19:07:12.934Z,3.00
2018-09-24T19:11:27.967Z,3.02
2018-09-24T19:15:40.651Z,3.00
2018-09-24T19:19:54.350Z,2.93
2018-09-24T19:24:08.042Z,3.83
2018-09-24T19:28:21.762Z,4.33
2018-09-24T19:32:35.581Z,3.90
2018-09-24T19:36:49.385Z,3.60
2018-09-24T19:41:02.918Z,2.70
2018-09-24T19:45:16.568Z,2.20
2018-09-24T19:49:30.362Z,2.60
2018-09-24T19:53:44.107Z,2.60
2018-09-24T19:57:57.821Z,2.53
2018-09-24T20:02:11.422Z,2.60
2018-09-24T20:06:25.553Z,2.53
2018-09-24T20:10:40.550Z,2.67
2018-09-24T20:14:54.333Z,2.40
2018-09-24T20:19:11.422Z,2.70
2018-09-24T20:23:25.077Z,2.47
2018-09-24T20:27:38.796Z,2.60
2018-09-24T20:31:52.513Z,3.00
2018-09-24T20:36:06.399Z,2.70
2018-09-24T20:40:20.129Z,2.60
2018-09-24T20:44:33.801Z,2.67
2018-09-24T20:48:47.593Z,3.03
2018-09-24T20:53:01.406Z,3.33
2018-09-24T20:57:15.255Z,2.93
2018-09-24T21:01:29.025Z,2.80
2018-09-24T21:05:42.699Z,2.43
2018-09-24T21:09:56.389Z,2.60
2018-09-24T21:14:09.892Z,2.40
2018-09-24T21:18:23.660Z,2.33
2018-09-24T21:22:37.316Z,3.30
2018-09-24T21:26:50.872Z,2.50
2018-09-24T21:31:04.686Z,2.40
2018-09-24T21:35:18.551Z,3.00
2018-09-24T21:39:32.238Z,2.30
2018-09-24T21:43:46.128Z,2.77
2018-09-24T21:47:59.934Z,3.07
2018-09-24T21:52:13.632Z,3.17
2018-09-24T21:56:27.330Z,2.60
2018-09-24T22:00:41.146Z,2.90
2018-09-24T22:04:55.077Z,2.70
2018-09-24T22:09:08.971Z,3.10
2018-09-24T22:13:22.809Z,3.27
2018-09-24T22:17:36.982Z,3.13
2018-09-24T22:21:50.770Z,2.93
2018-09-24T22:26:04.441Z,3.45
2018-09-24T22:30:18.127Z,3.37
2018-09-24T22:34:31.834Z,2.47
2018-09-24T22:38:45.634Z,2.90
2018-09-24T22:42:59.372Z,3.03
2018-09-24T22:47:13.217Z,2.67
2018-09-24T22:51:26.858Z,3.40
2018-09-24T22:55:40.750Z,3.07
2018-09-24T22:59:54.546Z,3.37
2018-09-24T23:04:08.175Z,3.33
2018-09-24T23:08:21.874Z,3.53
2018-09-24T23:12:35.669Z,3.47
2018-09-24T23:16:49.575Z,4.17
2018-09-24T23:21:03.409Z,3.60
2018-09-24T23:25:17.167Z,3.57
2018-09-24T23:29:30.775Z,3.40
2018-09-24T23:33:44.733Z,3.13
2018-09-24T23:37:58.610Z,3.70
2018-09-24T23:42:12.263Z,2.83
2018-09-24T23:46:25.821Z,3.40
2018-09-24T23:50:39.671Z,3.60
2018-09-24T23:54:53.254Z,3.20
2018-09-24T23:59:06.973Z,3.73
